createdAt,value
2018-11-02T00:00:14.684Z,972.43
2018-11-02T00:01:14.691Z,972.43
2018-11-02T00:02:14.742Z,972.39
2018-11-02T00:03:14.775Z,972.38
2018-11-02T00:04:14.844Z,972.37
2018-11-02T00:05:14.872Z,972.41
2018-11-02T00:06:14.995Z,972.35
2018-11-02T00:07:14.964Z,972.33
2018-11-02T00:08:14.999Z,972.36
2018-11-02T00:09:15.041Z,972.39
2018-11-02T00:10:15.115Z,972.38
2018-11-02T00:11:15.174Z,972.43
2018-11-02T00:12:15.202Z,972.43
2018-11-02T00:13:15.312Z,972.46
2018-11-02T00:14:15.269Z,972.46
2018-11-02T00:15:15.327Z,972.45
2018-11-02T00:16:15.369Z,972.48
2018-11-02T00:17:15.395Z,972.43
2018-11-02T00:18:15.494Z,972.43
2018-11-02T00:19:15.484Z,972.44
2018-11-02T00:20:15.525Z,972.40
2018-11-02T00:21:15.594Z,972.37
2018-11-02T00:22:15.635Z,972.35
2018-11-02T00:23:15.657Z,972.32
2018-11-02T00:24:15.707Z,972.34
2018-11-02T00:25:15.750Z,972.35
2018-11-02T00:26:15.793Z,972.33
2018-11-02T00:27:15.856Z,972.33
2018-11-02T00:28:15.880Z,972.34
2018-11-02T00:29:15.929Z,972.34
2018-11-02T00:30:15.968Z,972.38
2018-11-02T00:31:16.015Z,972.34
2018-11-02T00:32:16.074Z,972.39
2018-11-02T00:33:16.120Z,972.38
2018-11-02T00:34:16.143Z,972.39
2018-11-02T00:35:16.188Z,972.41
2018-11-02T00:36:16.236Z,972.34
2018-11-02T00:37:16.291Z,972.34
2018-11-02T00:38:16.348Z,972.29
2018-11-02T00:39:16.380Z,972.27
2018-11-02T00:40:16.409Z,972.28
2018-11-02T00:41:16.454Z,972.26
2018-11-02T00:42:16.520Z,972.26
2018-11-02T00:43:16.561Z,972.26
2018-11-02T00:44:16.593Z,972.22
2018-11-02T00:45:17.392Z,972.23
2018-11-02T00:46:16.673Z,972.30
2018-11-02T00:47:16.729Z,972.29
2018-11-02T00:48:16.788Z,972.30
2018-11-02T00:49:16.808Z,972.33
2018-11-02T00:50:16.851Z,972.34
2018-11-02T00:51:16.895Z,972.33
2018-11-02T00:52:16.969Z,972.31
2018-11-02T00:53:17.012Z,972.33
2018-11-02T00:54:17.026Z,972.35
2018-11-02T00:55:17.077Z,972.38
2018-11-02T00:56:17.123Z,972.37
2018-11-02T00:57:17.166Z,972.36
2018-11-02T00:58:17.232Z,972.37
2018-11-02T00:59:17.369Z,972.40
2018-11-02T01:00:17.300Z,972.41
2018-11-02T01:01:17.333Z,972.44
2018-11-02T01:02:17.382Z,972.47
2018-11-02T01:03:17.432Z,972.47
2018-11-02T01:04:17.493Z,972.54
2018-11-02T01:05:17.526Z,972.53
2018-11-02T01:06:17.570Z,972.51
2018-11-02T01:07:17.602Z,972.53
2018-11-02T01:08:17.648Z,972.54
2018-11-02T01:09:17.712Z,972.52
2018-11-02T01:10:17.750Z,972.52
2018-11-02T01:11:17.780Z,972.47
2018-11-02T01:12:17.821Z,972.43
2018-11-02T01:13:17.870Z,972.43
2018-11-02T01:14:17.921Z,972.41
2018-11-02T01:15:17.975Z,972.41
2018-11-02T01:16:18.021Z,972.40
2018-11-02T01:17:18.041Z,972.38
2018-11-02T01:18:18.088Z,972.35
2018-11-02T01:19:18.129Z,972.37
2018-11-02T01:20:18.201Z,972.33
2018-11-02T01:21:18.217Z,972.37
2018-11-02T01:22:18.267Z,972.40
2018-11-02T01:23:18.346Z,972.43
2018-11-02T01:24:18.352Z,972.45
2018-11-02T01:25:18.414Z,972.44
2018-11-02T01:26:18.440Z,972.41
2018-11-02T01:27:18.518Z,972.41
2018-11-02T01:28:18.528Z,972.43
2018-11-02T01:29:18.578Z,972.45
2018-11-02T01:30:18.626Z,972.51
2018-11-02T01:31:18.656Z,972.48
2018-11-02T01:32:18.733Z,972.53
2018-11-02T01:33:18.748Z,972.58
2018-11-02T01:34:18.789Z,972.58
2018-11-02T01:35:18.835Z,972.60
2018-11-02T01:36:18.897Z,972.64
2018-11-02T01:37:18.944Z,972.69
2018-11-02T01:38:18.970Z,972.67
2018-11-02T01:39:19.015Z,972.69
2018-11-02T01:40:19.056Z,972.70
2018-11-02T01:41:19.123Z,972.71
2018-11-02T01:42:19.168Z,972.73
2018-11-02T01:43:19.194Z,972.75
2018-11-02T01:44:19.239Z,972.77
2018-11-02T01:45:19.279Z,972.79
2018-11-02T01:46:19.319Z,972.79
2018-11-02T01:47:19.393Z,972.81
2018-11-02T01:48:19.487Z,972.77
2018-11-02T01:49:19.449Z,972.74
2018-11-02T01:50:19.498Z,972.73
2018-11-02T01:51:19.538Z,972.70
2018-11-02T01:52:19.599Z,972.71
2018-11-02T01:53:19.627Z,972.71
2018-11-02T01:54:19.702Z,972.67
2018-11-02T01:55:19.712Z,972.63
2018-11-02T01:56:19.757Z,972.62
2018-11-02T01:57:19.833Z,972.56
2018-11-02T01:58:19.852Z,972.52
2018-11-02T01:59:19.888Z,972.55
2018-11-02T02:00:19.934Z,972.51
2018-11-02T02:01:19.974Z,972.48
2018-11-02T02:02:20.057Z,972.48
2018-11-02T02:03:20.068Z,972.45
2018-11-02T02:04:20.136Z,972.43
2018-11-02T02:05:20.150Z,972.43
2018-11-02T02:06:20.194Z,972.44
2018-11-02T02:07:20.239Z,972.46
2018-11-02T02:08:20.307Z,972.48
2018-11-02T02:09:20.346Z,972.52
2018-11-02T02:10:20.375Z,972.55
2018-11-02T02:11:20.412Z,972.55
2018-11-02T02:12:20.461Z,972.55
2018-11-02T02:13:20.628Z,972.56
2018-11-02T02:14:20.544Z,972.58
2018-11-02T02:15:20.663Z,972.64
2018-11-02T02:16:20.635Z,972.67
2018-11-02T02:17:20.674Z,972.71
2018-11-02T02:18:20.736Z,972.71
2018-11-02T02:19:20.766Z,972.70
2018-11-02T02:20:20.864Z,972.72
2018-11-02T02:21:20.849Z,972.71
2018-11-02T02:22:20.896Z,972.68
2018-11-02T02:23:20.953Z,972.67
2018-11-02T02:24:21.011Z,972.67
2018-11-02T02:25:21.033Z,972.69
2018-11-02T02:26:21.070Z,972.74
2018-11-02T02:27:21.119Z,972.74
2018-11-02T02:28:21.165Z,972.78
2018-11-02T02:29:21.227Z,972.73
2018-11-02T02:30:21.258Z,972.77
2018-11-02T02:31:21.345Z,972.79
2018-11-02T02:32:21.332Z,972.80
2018-11-02T02:33:21.401Z,972.78
2018-11-02T02:34:21.418Z,972.79
2018-11-02T02:35:21.498Z,972.82
2018-11-02T02:36:21.508Z,972.87
2018-11-02T02:37:21.553Z,972.94
2018-11-02T02:38:21.608Z,972.97
2018-11-02T02:39:21.649Z,973.00
2018-11-02T02:40:21.713Z,972.95
2018-11-02T02:41:21.745Z,972.88
2018-11-02T02:42:21.770Z,972.86
2018-11-02T02:43:21.823Z,972.87
2018-11-02T02:44:21.861Z,972.84
2018-11-02T02:45:21.997Z,972.82
2018-11-02T02:46:21.968Z,972.79
2018-11-02T02:47:21.988Z,972.77
2018-11-02T02:48:22.036Z,972.74
2018-11-02T02:49:22.076Z,972.73
2018-11-02T02:50:22.123Z,972.64
2018-11-02T02:51:22.188Z,972.67
2018-11-02T02:52:22.211Z,972.63
2018-11-02T02:53:22.260Z,972.65
2018-11-02T02:54:22.299Z,972.65
2018-11-02T02:55:22.342Z,972.66
2018-11-02T02:56:22.409Z,972.65
2018-11-02T02:57:22.428Z,972.62
2018-11-02T02:58:22.495Z,972.61
2018-11-02T02:59:22.518Z,972.62
2018-11-02T03:00:22.561Z,972.58
2018-11-02T03:01:22.616Z,972.63
2018-11-02T03:02:22.657Z,972.67
2018-11-02T03:03:22.719Z,972.61
2018-11-02T03:04:22.740Z,972.62
2018-11-02T03:05:22.781Z,972.61
2018-11-02T03:06:22.828Z,972.63
2018-11-02T03:07:22.869Z,972.67
2018-11-02T03:08:22.944Z,972.72
2018-11-02T03:09:22.964Z,972.76
2018-11-02T03:10:23.028Z,972.72
2018-11-02T03:11:23.046Z,972.72
2018-11-02T03:12:23.094Z,972.71
2018-11-02T03:13:23.174Z,972.76
2018-11-02T03:14:23.190Z,972.73
2018-11-02T03:15:23.220Z,972.76
2018-11-02T03:16:23.314Z,972.76
2018-11-02T03:17:23.338Z,972.77
2018-11-02T03:18:23.391Z,972.74
2018-11-02T03:19:23.397Z,972.73
2018-11-02T03:20:23.449Z,972.77
2018-11-02T03:21:23.486Z,972.78
2018-11-02T03:22:23.555Z,972.82
2018-11-02T03:23:23.597Z,972.83
2018-11-02T03:24:23.640Z,972.88
2018-11-02T03:25:23.689Z,972.85
2018-11-02T03:26:23.713Z,972.89
2018-11-02T03:27:23.752Z,972.81
2018-11-02T03:28:23.803Z,972.79
2018-11-02T03:29:23.838Z,972.82
2018-11-02T03:30:23.926Z,972.85
2018-11-02T03:31:23.928Z,972.85
2018-11-02T03:32:23.982Z,972.86
2018-11-02T03:33:24.010Z,972.87
2018-11-02T03:34:24.061Z,972.89
2018-11-02T03:35:24.127Z,972.87
2018-11-02T03:36:24.156Z,972.84
2018-11-02T03:37:24.197Z,972.83
2018-11-02T03:38:24.236Z,972.82
2018-11-02T03:39:24.281Z,972.82
2018-11-02T03:40:24.356Z,972.84
2018-11-02T03:41:24.370Z,972.87
2018-11-02T03:42:24.415Z,972.92
2018-11-02T03:43:24.456Z,972.95
2018-11-02T03:44:24.506Z,972.95
2018-11-02T03:45:24.568Z,972.98
2018-11-02T03:46:24.589Z,973.01
2018-11-02T03:47:24.675Z,973.05
2018-11-02T03:48:24.676Z,973.05
2018-11-02T03:49:24.720Z,973.03
2018-11-02T03:50:25.079Z,973.07
2018-11-02T03:51:24.809Z,973.05
2018-11-02T03:52:24.854Z,973.11
2018-11-02T03:53:24.912Z,973.10
2018-11-02T03:54:24.947Z,973.17
2018-11-02T03:55:25.560Z,973.15
2018-11-02T03:56:25.591Z,973.16
2018-11-02T03:57:25.097Z,973.16
2018-11-02T03:58:25.119Z,973.17
2018-11-02T03:59:25.164Z,973.21
2018-11-02T04:00:25.225Z,973.23
2018-11-02T04:01:26.096Z,973.25
2018-11-02T04:02:25.317Z,973.18
2018-11-02T04:03:25.358Z,973.21
2018-11-02T04:04:25.380Z,973.14
2018-11-02T04:05:25.456Z,973.12
2018-11-02T04:06:25.470Z,973.10
2018-11-02T04:07:25.512Z,973.10
2018-11-02T04:08:25.705Z,973.11
2018-11-02T04:09:25.605Z,973.10
2018-11-02T04:10:25.669Z,973.12
2018-11-02T04:11:25.695Z,973.12
2018-11-02T04:12:25.735Z,973.13
2018-11-02T04:13:25.811Z,973.15
2018-11-02T04:14:25.821Z,973.15
2018-11-02T04:15:25.870Z,973.19
2018-11-02T04:16:25.907Z,973.17
2018-11-02T04:17:25.954Z,973.24
2018-11-02T04:18:26.876Z,973.24
2018-11-02T04:19:26.048Z,973.24
2018-11-02T04:20:26.088Z,973.29
2018-11-02T04:21:26.132Z,973.32
2018-11-02T04:22:26.181Z,973.37
2018-11-02T04:23:26.244Z,973.36
2018-11-02T04:24:26.261Z,973.39
2018-11-02T04:25:26.315Z,973.38
2018-11-02T04:26:26.349Z,973.31
2018-11-02T04:27:26.396Z,973.27
2018-11-02T04:28:26.462Z,973.28
2018-11-02T04:29:26.480Z,973.30
2018-11-02T04:30:26.530Z,973.28
2018-11-02T04:31:26.579Z,973.31
2018-11-02T04:32:26.617Z,973.30
2018-11-02T04:33:26.689Z,973.32
2018-11-02T04:34:26.701Z,973.39
2018-11-02T04:35:26.752Z,973.44
2018-11-02T04:36:26.791Z,973.50
2018-11-02T04:37:26.859Z,973.49
2018-11-02T04:38:26.884Z,973.47
2018-11-02T04:39:26.925Z,973.43
2018-11-02T04:40:26.974Z,973.44
2018-11-02T04:41:27.036Z,973.37
2018-11-02T04:42:27.082Z,973.36
2018-11-02T04:43:27.100Z,973.43
2018-11-02T04:44:27.142Z,973.46
2018-11-02T04:45:27.194Z,973.50
2018-11-02T04:46:27.240Z,973.48
2018-11-02T04:47:27.292Z,973.50
2018-11-02T04:48:27.349Z,973.54
2018-11-02T04:49:27.364Z,973.52
2018-11-02T04:50:27.411Z,973.52
2018-11-02T04:51:27.452Z,973.45
2018-11-02T04:52:27.518Z,973.47
2018-11-02T04:53:27.549Z,973.47
2018-11-02T04:54:27.588Z,973.44
2018-11-02T04:55:27.632Z,973.41
2018-11-02T04:56:27.694Z,973.40
2018-11-02T04:57:27.735Z,973.39
2018-11-02T04:58:27.777Z,973.37
2018-11-02T04:59:27.809Z,973.39
2018-11-02T05:00:27.850Z,973.40
2018-11-02T05:01:27.898Z,973.41
2018-11-02T05:02:27.940Z,973.37
2018-11-02T05:03:28.016Z,973.36
2018-11-02T05:04:28.026Z,973.34
2018-11-02T05:05:28.068Z,973.34
2018-11-02T05:06:28.130Z,973.29
2018-11-02T05:07:28.161Z,973.32
2018-11-02T05:08:28.228Z,973.34
2018-11-02T05:09:28.249Z,973.30
2018-11-02T05:10:28.368Z,973.28
2018-11-02T05:11:28.421Z,973.29
2018-11-02T05:12:28.385Z,973.31
2018-11-02T05:13:28.445Z,973.36
2018-11-02T05:14:28.527Z,973.39
2018-11-02T05:15:28.513Z,973.39
2018-11-02T05:16:28.555Z,973.45
2018-11-02T05:17:28.607Z,973.46
2018-11-02T05:18:28.656Z,973.49
2018-11-02T05:19:28.724Z,973.49
2018-11-02T05:20:28.737Z,973.49
2018-11-02T05:21:28.848Z,973.46
2018-11-02T05:22:28.830Z,973.47
2018-11-02T05:23:28.868Z,973.45
2018-11-02T05:24:28.941Z,973.47
2018-11-02T05:25:28.958Z,973.43
2018-11-02T05:26:29.002Z,973.42
2018-11-02T05:27:29.057Z,973.40
2018-11-02T05:28:29.091Z,973.40
2018-11-02T05:29:29.152Z,973.38
2018-11-02T05:30:29.201Z,973.41
2018-11-02T05:31:29.222Z,973.45
2018-11-02T05:32:29.267Z,973.48
2018-11-02T05:33:29.328Z,973.49
2018-11-02T05:34:29.357Z,973.60
2018-11-02T05:35:29.422Z,973.65
2018-11-02T05:36:29.449Z,973.66
2018-11-02T05:37:29.489Z,973.63
2018-11-02T05:38:29.533Z,973.62
2018-11-02T05:39:29.666Z,973.61
2018-11-02T05:40:29.757Z,973.61
2018-11-02T05:41:29.669Z,973.63
2018-11-02T05:42:29.713Z,973.61
2018-11-02T05:43:29.766Z,973.67
2018-11-02T05:44:29.802Z,973.70
2018-11-02T05:45:29.866Z,973.71
2018-11-02T05:46:29.895Z,973.74
2018-11-02T05:47:30.064Z,973.74
2018-11-02T05:48:29.980Z,973.75
2018-11-02T05:49:30.024Z,973.74
2018-11-02T05:50:30.103Z,973.77
2018-11-02T05:51:30.117Z,973.79
2018-11-02T05:52:30.157Z,973.82
2018-11-02T05:53:30.223Z,973.85
2018-11-02T05:54:30.261Z,973.82
2018-11-02T05:55:30.291Z,973.81
2018-11-02T05:56:30.335Z,973.80
2018-11-02T05:57:30.414Z,973.80
2018-11-02T05:58:30.447Z,973.78
2018-11-02T05:59:30.470Z,973.72
2018-11-02T06:00:30.516Z,973.72
2018-11-02T06:01:30.584Z,973.71
2018-11-02T06:02:30.602Z,973.71
2018-11-02T06:03:30.676Z,973.69
2018-11-02T06:04:30.699Z,973.71
2018-11-02T06:05:30.740Z,973.71
2018-11-02T06:06:30.789Z,973.73
2018-11-02T06:07:30.828Z,973.72
2018-11-02T06:08:30.904Z,973.74
2018-11-02T06:09:30.915Z,973.77
2018-11-02T06:10:30.965Z,973.84
2018-11-02T06:11:31.005Z,973.82
2018-11-02T06:12:31.071Z,973.84
2018-11-02T06:13:31.137Z,973.88
2018-11-02T06:14:31.153Z,973.88
2018-11-02T06:15:31.184Z,973.91
2018-11-02T06:16:31.248Z,973.92
2018-11-02T06:17:31.280Z,973.96
2018-11-02T06:18:31.332Z,973.95
2018-11-02T06:19:31.392Z,973.96
2018-11-02T06:20:31.420Z,974.02
2018-11-02T06:21:31.456Z,974.05
2018-11-02T06:22:31.497Z,974.08
2018-11-02T06:23:31.540Z,974.09
2018-11-02T06:24:31.612Z,974.13
2018-11-02T06:25:31.651Z,974.09
2018-11-02T06:26:31.737Z,974.11
2018-11-02T06:27:31.718Z,974.09
2018-11-02T06:28:31.772Z,974.11
2018-11-02T06:29:31.807Z,974.11
2018-11-02T06:30:31.935Z,974.13
2018-11-02T06:31:31.895Z,974.16
2018-11-02T06:32:31.976Z,974.17
2018-11-02T06:33:32.004Z,974.18
2018-11-02T06:34:32.029Z,974.25
2018-11-02T06:35:32.103Z,974.28
2018-11-02T06:36:32.125Z,974.32
2018-11-02T06:37:32.164Z,974.32
2018-11-02T06:38:32.269Z,974.39
2018-11-02T06:39:32.260Z,974.43
2018-11-02T06:40:32.341Z,974.42
2018-11-02T06:41:32.358Z,974.42
2018-11-02T06:42:32.399Z,974.46
2018-11-02T06:43:32.433Z,974.49
2018-11-02T06:44:32.481Z,974.54
2018-11-02T06:45:32.564Z,974.55
2018-11-02T06:46:32.567Z,974.61
2018-11-02T06:47:32.613Z,974.60
2018-11-02T06:48:32.668Z,974.57
2018-11-02T06:49:32.740Z,974.53
2018-11-02T06:50:32.779Z,974.48
2018-11-02T06:51:32.792Z,974.46
2018-11-02T06:52:32.837Z,974.45
2018-11-02T06:53:32.880Z,974.42
2018-11-02T06:54:32.929Z,974.42
2018-11-02T06:55:32.998Z,974.41
2018-11-02T06:56:33.087Z,974.39
2018-11-02T06:57:33.062Z,974.41
2018-11-02T06:58:33.168Z,974.38
2018-11-02T06:59:33.266Z,974.36
2018-11-02T07:00:33.424Z,974.41
2018-11-02T07:01:33.276Z,974.40
2018-11-02T07:02:33.286Z,974.41
2018-11-02T07:03:33.392Z,974.45
2018-11-02T07:04:33.375Z,974.42
2018-11-02T07:05:33.419Z,974.39
2018-11-02T07:06:33.500Z,974.44
2018-11-02T07:07:33.642Z,974.44
2018-11-02T07:08:33.689Z,974.46
2018-11-02T07:09:33.600Z,974.46
2018-11-02T07:10:33.743Z,974.50
2018-11-02T07:11:33.692Z,974.52
2018-11-02T07:12:33.764Z,974.57
2018-11-02T07:13:33.801Z,974.56
2018-11-02T07:14:33.829Z,974.59
2018-11-02T07:15:33.889Z,974.57
2018-11-02T07:16:34.570Z,974.57
2018-11-02T07:17:34.567Z,974.55
2018-11-02T07:18:34.039Z,974.54
2018-11-02T07:19:34.061Z,974.54
2018-11-02T07:20:34.101Z,974.57
2018-11-02T07:21:34.151Z,974.60
2018-11-02T07:22:34.238Z,974.63
2018-11-02T07:23:35.157Z,974.69
2018-11-02T07:24:34.282Z,974.73
2018-11-02T07:25:34.370Z,974.70
2018-11-02T07:26:34.377Z,974.72
2018-11-02T07:27:36.072Z,974.68
2018-11-02T07:28:34.489Z,974.68
2018-11-02T07:29:34.514Z,974.70
2018-11-02T07:30:34.583Z,974.74
2018-11-02T07:31:34.602Z,974.75
2018-11-02T07:32:34.660Z,974.79
2018-11-02T07:33:34.744Z,974.78
2018-11-02T07:34:34.870Z,974.83
2018-11-02T07:35:34.797Z,974.86
2018-11-02T07:36:34.837Z,974.84
2018-11-02T07:37:34.880Z,974.87
2018-11-02T07:38:34.933Z,974.87
2018-11-02T07:39:34.993Z,974.89
2018-11-02T07:40:35.125Z,974.90
2018-11-02T07:41:35.078Z,974.92
2018-11-02T07:42:35.114Z,974.94
2018-11-02T07:43:35.162Z,974.93
2018-11-02T07:44:35.204Z,974.95
2018-11-02T07:45:35.276Z,974.93
2018-11-02T07:46:35.302Z,974.89
2018-11-02T07:47:35.446Z,974.90
2018-11-02T07:48:35.389Z,974.88
2018-11-02T07:49:35.509Z,974.92
2018-11-02T07:50:35.507Z,974.95
2018-11-02T07:51:36.071Z,974.96
2018-11-02T07:52:35.575Z,975.03
2018-11-02T07:53:35.620Z,975.02
2018-11-02T07:54:35.789Z,975.04
2018-11-02T07:55:35.728Z,975.08
2018-11-02T07:56:35.836Z,975.07
2018-11-02T07:57:35.802Z,975.06
2018-11-02T07:58:35.862Z,975.10
2018-11-02T07:59:35.896Z,975.09
2018-11-02T08:00:35.952Z,975.16
2018-11-02T08:01:36.149Z,975.22
2018-11-02T08:02:36.059Z,975.28
2018-11-02T08:03:36.083Z,975.28
2018-11-02T08:04:36.126Z,975.40
2018-11-02T08:05:36.176Z,975.36
2018-11-02T08:06:36.228Z,975.40
2018-11-02T08:07:36.299Z,975.43
2018-11-02T08:08:36.313Z,975.41
2018-11-02T08:09:36.358Z,975.43
2018-11-02T08:10:36.414Z,975.44
2018-11-02T08:11:36.480Z,975.44
2018-11-02T08:12:36.523Z,975.44
2018-11-02T08:13:36.574Z,975.42
2018-11-02T08:14:36.600Z,975.39
2018-11-02T08:15:36.647Z,975.37
2018-11-02T08:16:36.689Z,975.37
2018-11-02T08:17:36.744Z,975.34
2018-11-02T08:18:36.822Z,975.33
2018-11-02T08:19:36.824Z,975.31
2018-11-02T08:20:36.882Z,975.27
2018-11-02T08:21:36.919Z,975.28
2018-11-02T08:22:36.966Z,975.28
2018-11-02T08:23:37.037Z,975.29
2018-11-02T08:24:37.165Z,975.28
2018-11-02T08:25:37.112Z,975.27
2018-11-02T08:26:37.152Z,975.28
2018-11-02T08:27:37.200Z,975.23
2018-11-02T08:28:37.277Z,975.27
2018-11-02T08:29:37.315Z,975.21
2018-11-02T08:30:37.339Z,975.17
2018-11-02T08:31:37.479Z,975.14
2018-11-02T08:32:37.432Z,975.15
2018-11-02T08:33:37.481Z,975.11
2018-11-02T08:34:37.559Z,975.08
2018-11-02T08:35:37.584Z,975.07
2018-11-02T08:36:37.617Z,975.04
2018-11-02T08:37:37.677Z,975.04
2018-11-02T08:38:37.789Z,975.03
2018-11-02T08:39:37.779Z,974.99
2018-11-02T08:40:37.807Z,975.05
2018-11-02T08:41:37.851Z,975.01
2018-11-02T08:42:37.899Z,975.06
2018-11-02T08:43:37.954Z,975.04
2018-11-02T08:44:38.020Z,975.03
2018-11-02T08:45:38.191Z,975.06
2018-11-02T08:46:38.154Z,975.05
2018-11-02T08:47:38.141Z,975.06
2018-11-02T08:48:38.195Z,975.12
2018-11-02T08:49:38.273Z,975.11
2018-11-02T08:50:38.298Z,975.13
2018-11-02T08:51:38.351Z,975.14
2018-11-02T08:52:38.370Z,975.12
2018-11-02T08:53:38.418Z,975.06
2018-11-02T08:54:38.466Z,975.06
2018-11-02T08:55:38.532Z,975.10
2018-11-02T08:56:38.584Z,975.07
2018-11-02T08:57:38.635Z,975.08
2018-11-02T08:58:38.801Z,975.02
2018-11-02T08:59:38.787Z,975.04
2018-11-02T09:00:38.746Z,974.98
2018-11-02T09:01:38.822Z,974.96
2018-11-02T09:02:38.840Z,974.97
2018-11-02T09:03:38.889Z,974.91
2018-11-02T09:04:38.938Z,974.90
2018-11-02T09:05:38.990Z,974.90
2018-11-02T09:06:39.069Z,974.87
2018-11-02T09:07:39.089Z,974.87
2018-11-02T09:08:39.124Z,974.81
2018-11-02T09:09:39.174Z,974.80
2018-11-02T09:10:39.216Z,974.79
2018-11-02T09:11:39.291Z,974.80
2018-11-02T09:12:39.393Z,974.76
2018-11-02T09:13:39.357Z,974.73
2018-11-02T09:14:39.427Z,974.79
2018-11-02T09:15:39.467Z,974.79
2018-11-02T09:16:39.504Z,974.80
2018-11-02T09:17:39.566Z,974.76
2018-11-02T09:18:39.612Z,974.80
2018-11-02T09:19:39.645Z,974.80
2018-11-02T09:20:39.697Z,974.84
2018-11-02T09:21:39.745Z,974.87
2018-11-02T09:22:39.828Z,974.88
2018-11-02T09:23:39.889Z,974.91
2018-11-02T09:24:39.888Z,974.90
2018-11-02T09:25:39.924Z,974.94
2018-11-02T09:26:39.974Z,974.95
2018-11-02T09:27:40.065Z,974.93
2018-11-02T09:28:40.087Z,974.94
2018-11-02T09:29:40.272Z,974.94
2018-11-02T09:30:40.160Z,974.96
2018-11-02T09:31:40.212Z,974.93
2018-11-02T09:32:40.272Z,974.94
2018-11-02T09:33:40.313Z,974.92
2018-11-02T09:34:40.368Z,974.99
2018-11-02T09:35:40.395Z,974.99
2018-11-02T09:36:40.550Z,975.02
2018-11-02T09:37:40.493Z,975.04
2018-11-02T09:38:40.544Z,975.01
2018-11-02T09:39:40.613Z,975.07
2018-11-02T09:40:40.667Z,974.99
2018-11-02T09:41:40.694Z,975.05
2018-11-02T09:42:40.835Z,975.01
2018-11-02T09:43:40.800Z,974.99
2018-11-02T09:44:40.827Z,974.98
2018-11-02T09:45:40.891Z,974.90
2018-11-02T09:46:40.927Z,974.86
2018-11-02T09:47:40.993Z,974.79
2018-11-02T09:48:41.030Z,974.72
2018-11-02T09:49:41.064Z,974.65
2018-11-02T09:50:41.219Z,974.58
2018-11-02T09:51:41.198Z,974.62
2018-11-02T09:52:41.213Z,974.58
2018-11-02T09:53:41.255Z,974.55
2018-11-02T09:54:41.310Z,974.60
2018-11-02T09:55:41.382Z,974.64
2018-11-02T09:56:41.401Z,974.62
2018-11-02T09:57:41.532Z,974.65
2018-11-02T09:58:41.503Z,974.72
2018-11-02T09:59:41.590Z,974.76
2018-11-02T10:00:41.626Z,974.76
2018-11-02T10:01:41.652Z,974.80
2018-11-02T10:02:41.706Z,974.80
2018-11-02T10:03:41.757Z,974.75
2018-11-02T10:04:41.795Z,974.77
2018-11-02T10:05:41.838Z,974.78
2018-11-02T10:06:41.912Z,974.85
2018-11-02T10:07:41.969Z,974.85
2018-11-02T10:08:41.994Z,974.93
2018-11-02T10:09:42.044Z,974.94
2018-11-02T10:10:42.091Z,974.94
2018-11-02T10:11:42.139Z,974.98
2018-11-02T10:12:42.206Z,974.96
2018-11-02T10:13:42.263Z,974.96
2018-11-02T10:14:42.279Z,974.97
2018-11-02T10:15:42.328Z,974.96
2018-11-02T10:16:42.379Z,974.95
2018-11-02T10:17:42.474Z,974.92
2018-11-02T10:18:42.484Z,974.88
2018-11-02T10:19:42.532Z,974.84
2018-11-02T10:20:42.583Z,974.79
2018-11-02T10:21:42.631Z,974.83
2018-11-02T10:22:42.706Z,974.78
2018-11-02T10:23:42.770Z,974.77
2018-11-02T10:24:42.784Z,974.79
2018-11-02T10:25:42.829Z,974.79
2018-11-02T10:26:42.882Z,974.81
2018-11-02T10:27:42.957Z,974.88
2018-11-02T10:28:43.005Z,974.93
2018-11-02T10:29:43.027Z,974.98
2018-11-02T10:30:43.079Z,975.05
2018-11-02T10:31:43.126Z,975.08
2018-11-02T10:32:43.182Z,975.13
2018-11-02T10:33:43.254Z,975.12
2018-11-02T10:34:43.307Z,975.14
2018-11-02T10:35:43.361Z,975.08
2018-11-02T10:36:43.407Z,975.03
2018-11-02T10:37:43.423Z,975.02
2018-11-02T10:38:43.483Z,975.03
2018-11-02T10:39:43.591Z,975.03
2018-11-02T10:40:43.571Z,974.98
2018-11-02T10:41:43.641Z,974.98
2018-11-02T10:42:43.668Z,974.91
2018-11-02T10:43:43.721Z,974.89
2018-11-02T10:44:43.861Z,974.86
2018-11-02T10:45:43.816Z,974.87
2018-11-02T10:46:43.864Z,974.83
2018-11-02T10:47:43.926Z,974.91
2018-11-02T10:48:43.961Z,974.86
2018-11-02T10:49:44.046Z,974.90
2018-11-02T10:50:44.066Z,974.91
2018-11-02T10:51:44.114Z,974.87
2018-11-02T10:52:44.174Z,974.91
2018-11-02T10:53:44.214Z,974.87
2018-11-02T10:54:44.335Z,974.81
2018-11-02T10:55:44.341Z,974.85
2018-11-02T10:56:44.515Z,974.85
2018-11-02T10:57:44.427Z,974.84
2018-11-02T10:58:44.468Z,974.81
2018-11-02T10:59:44.520Z,974.79
2018-11-02T11:00:44.790Z,974.77
2018-11-02T11:01:44.619Z,974.75
2018-11-02T11:02:44.671Z,974.70
2018-11-02T11:03:44.730Z,974.64
2018-11-02T11:04:44.772Z,974.62
2018-11-02T11:05:44.839Z,974.58
2018-11-02T11:06:44.879Z,974.61
2018-11-02T11:07:44.922Z,974.64
2018-11-02T11:08:44.994Z,974.69
2018-11-02T11:09:45.023Z,974.72
2018-11-02T11:10:45.081Z,974.77
2018-11-02T11:11:45.305Z,974.82
2018-11-02T11:12:45.507Z,974.85
2018-11-02T11:13:45.828Z,974.92
2018-11-02T11:14:45.272Z,974.92
2018-11-02T11:15:45.325Z,974.96
2018-11-02T11:16:45.378Z,975.01
2018-11-02T11:17:45.422Z,975.01
2018-11-02T11:18:45.500Z,974.97
2018-11-02T11:19:45.530Z,975.02
2018-11-02T11:20:45.577Z,974.97
2018-11-02T11:21:45.625Z,975.06
2018-11-02T11:22:45.676Z,975.05
2018-11-02T11:23:45.750Z,975.02
2018-11-02T11:24:45.778Z,975.03
2018-11-02T11:25:45.828Z,975.03
2018-11-02T11:26:45.879Z,975.08
2018-11-02T11:27:45.927Z,975.02
2018-11-02T11:28:45.997Z,975.01
2018-11-02T11:29:46.056Z,974.96
2018-11-02T11:30:46.113Z,974.92
2018-11-02T11:31:46.129Z,974.87
2018-11-02T11:32:46.188Z,974.80
2018-11-02T11:33:46.231Z,974.81
2018-11-02T11:34:46.294Z,974.75
2018-11-02T11:35:46.360Z,974.74
2018-11-02T11:36:46.408Z,974.74
2018-11-02T11:37:46.431Z,974.75
2018-11-02T11:38:46.482Z,974.70
2018-11-02T11:39:46.575Z,974.66
2018-11-02T11:40:46.586Z,974.66
2018-11-02T11:41:46.637Z,974.61
2018-11-02T11:42:46.710Z,974.58
2018-11-02T11:43:46.750Z,974.55
2018-11-02T11:44:46.840Z,974.56
2018-11-02T11:45:46.839Z,974.57
2018-11-02T11:46:46.894Z,974.58
2018-11-02T11:47:46.949Z,974.52
2018-11-02T11:48:47.090Z,974.52
2018-11-02T11:49:47.136Z,974.51
2018-11-02T11:50:47.108Z,974.56
2018-11-02T11:51:47.184Z,974.53
2018-11-02T11:52:47.213Z,974.58
2018-11-02T11:53:47.257Z,974.56
2018-11-02T11:54:47.303Z,974.59
2018-11-02T11:55:47.382Z,974.59
2018-11-02T11:56:47.491Z,974.65
2018-11-02T11:57:47.454Z,974.67
2018-11-02T11:58:47.533Z,974.65
2018-11-02T11:59:47.577Z,974.67
2018-11-02T12:00:47.614Z,974.68
2018-11-02T12:01:47.693Z,974.75
2018-11-02T12:02:47.717Z,974.72
2018-11-02T12:03:47.794Z,974.74
2018-11-02T12:04:47.900Z,974.78
2018-11-02T12:05:47.857Z,974.78
2018-11-02T12:06:47.908Z,974.78
2018-11-02T12:07:47.984Z,974.79
2018-11-02T12:08:48.039Z,974.78
2018-11-02T12:09:48.061Z,974.80
2018-11-02T12:10:48.169Z,974.82
2018-11-02T12:11:48.183Z,974.79
2018-11-02T12:12:48.210Z,974.85
2018-11-02T12:13:48.286Z,974.83
2018-11-02T12:14:48.325Z,974.76
2018-11-02T12:15:48.369Z,974.80
2018-11-02T12:16:48.412Z,974.75
2018-11-02T12:17:48.537Z,974.78
2018-11-02T12:18:48.538Z,974.77
2018-11-02T12:19:48.562Z,974.72
2018-11-02T12:20:48.606Z,974.77
2018-11-02T12:21:48.746Z,974.74
2018-11-02T12:22:48.704Z,974.75
2018-11-02T12:23:48.784Z,974.80
2018-11-02T12:24:48.815Z,974.81
2018-11-02T12:25:48.862Z,974.79
2018-11-02T12:26:48.911Z,974.80
2018-11-02T12:27:48.956Z,974.76
2018-11-02T12:28:49.079Z,974.77